sensor_id;sensor_type;location;lat;lon;timestamp;P1;durP1;ratioP1;P2;durP2;ratioP2
22223;SDS011;11281;52.194;21.006;2023-05-29T00:03:19;12.02;;;5.13;;
22223;SDS011;11281;52.194;21.006;2023-05-29T00:07:20;16.17;;;6.15;;
22223;SDS011;11281;52.194;21.006;2023-05-29T00:11:21;9.40;;;5.30;;
22223;SDS011;11281;52.194;21.006;2023-05-29T00:15:23;9.27;;;4.65;;
22223;SDS011;11281;52.194;21.006;2023-05-29T00:19:25;9.63;;;4.53;;
22223;SDS011;11281;52.194;21.006;2023-05-29T00:23:26;8.77;;;4.55;;
22223;SDS011;11281;52.194;21.006;2023-05-29T00:27:28;6.47;;;4.30;;
22223;SDS011;11281;52.194;21.006;2023-05-29T00:31:29;5.97;;;3.97;;
22223;SDS011;11281;52.194;21.006;2023-05-29T00:35:31;8.40;;;4.40;;
22223;SDS011;11281;52.194;21.006;2023-05-29T00:39:33;6.95;;;4.13;;
22223;SDS011;11281;52.194;21.006;2023-05-29T00:43:34;9.05;;;4.25;;
22223;SDS011;11281;52.194;21.006;2023-05-29T00:47:35;6.53;;;3.80;;
22223;SDS011;11281;52.194;21.006;2023-05-29T00:51:37;6.68;;;3.95;;
22223;SDS011;11281;52.194;21.006;2023-05-29T00:55:38;7.38;;;3.83;;
22223;SDS011;11281;52.194;21.006;2023-05-29T00:59:40;6.55;;;3.75;;
22223;SDS011;11281;52.194;21.006;2023-05-29T01:03:42;4.47;;;3.30;;
22223;SDS011;11281;52.194;21.006;2023-05-29T01:07:45;5.97;;;3.67;;
22223;SDS011;11281;52.194;21.006;2023-05-29T01:11:51;6.45;;;3.22;;
22223;SDS011;11281;52.194;21.006;2023-05-29T01:16:00;7.45;;;3.30;;
22223;SDS011;11281;52.194;21.006;2023-05-29T01:24:50;4.25;;;3.30;;
22223;SDS011;11281;52.194;21.006;2023-05-29T01:29:05;9.23;;;4.32;;
22223;SDS011;11281;52.194;21.006;2023-05-29T01:33:08;6.60;;;3.65;;
22223;SDS011;11281;52.194;21.006;2023-05-29T01:37:11;9.25;;;3.95;;
22223;SDS011;11281;52.194;21.006;2023-05-29T01:41:12;7.40;;;4.05;;
22223;SDS011;11281;52.194;21.006;2023-05-29T01:45:15;5.45;;;4.13;;
22223;SDS011;11281;52.194;21.006;2023-05-29T01:49:19;5.00;;;3.15;;
22223;SDS011;11281;52.194;21.006;2023-05-29T01:53:23;4.75;;;3.80;;
22223;SDS011;11281;52.194;21.006;2023-05-29T01:57:25;5.85;;;3.67;;
22223;SDS011;11281;52.194;21.006;2023-05-29T02:01:26;5.68;;;4.00;;
22223;SDS011;11281;52.194;21.006;2023-05-29T02:05:28;6.20;;;3.90;;
22223;SDS011;11281;52.194;21.006;2023-05-29T02:09:30;6.85;;;3.75;;
22223;SDS011;11281;52.194;21.006;2023-05-29T02:13:32;4.80;;;3.60;;
22223;SDS011;11281;52.194;21.006;2023-05-29T02:17:34;6.32;;;3.95;;
22223;SDS011;11281;52.194;21.006;2023-05-29T02:21:38;6.28;;;3.53;;
22223;SDS011;11281;52.194;21.006;2023-05-29T02:25:43;10.73;;;3.60;;
22223;SDS011;11281;52.194;21.006;2023-05-29T02:29:44;5.18;;;3.80;;
22223;SDS011;11281;52.194;21.006;2023-05-29T02:33:45;6.38;;;3.90;;
22223;SDS011;11281;52.194;21.006;2023-05-29T02:37:47;5.57;;;4.03;;
22223;SDS011;11281;52.194;21.006;2023-05-29T02:41:48;7.20;;;3.90;;
22223;SDS011;11281;52.194;21.006;2023-05-29T02:45:49;6.50;;;3.92;;
22223;SDS011;11281;52.194;21.006;2023-05-29T02:49:50;7.50;;;4.43;;
22223;SDS011;11281;52.194;21.006;2023-05-29T02:53:53;8.35;;;3.80;;
22223;SDS011;11281;52.194;21.006;2023-05-29T02:57:54;6.10;;;3.80;;
22223;SDS011;11281;52.194;21.006;2023-05-29T03:01:56;7.32;;;3.50;;
22223;SDS011;11281;52.194;21.006;2023-05-29T03:05:58;6.75;;;4.03;;
22223;SDS011;11281;52.194;21.006;2023-05-29T03:09:59;9.35;;;3.60;;
22223;SDS011;11281;52.194;21.006;2023-05-29T03:14:01;6.07;;;3.75;;
22223;SDS011;11281;52.194;21.006;2023-05-29T03:18:02;9.93;;;4.10;;
22223;SDS011;11281;52.194;21.006;2023-05-29T03:22:03;5.97;;;3.67;;
22223;SDS011;11281;52.194;21.006;2023-05-29T03:26:05;6.28;;;4.07;;
22223;SDS011;11281;52.194;21.006;2023-05-29T03:30:06;6.90;;;3.72;;
22223;SDS011;11281;52.194;21.006;2023-05-29T03:34:08;8.43;;;4.03;;
22223;SDS011;11281;52.194;21.006;2023-05-29T03:38:09;6.22;;;3.90;;
22223;SDS011;11281;52.194;21.006;2023-05-29T03:42:11;10.15;;;4.25;;
22223;SDS011;11281;52.194;21.006;2023-05-29T03:46:13;7.50;;;4.32;;
22223;SDS011;11281;52.194;21.006;2023-05-29T03:50:16;6.05;;;4.65;;
22223;SDS011;11281;52.194;21.006;2023-05-29T03:54:18;8.35;;;4.00;;
22223;SDS011;11281;52.194;21.006;2023-05-29T03:58:19;12.70;;;4.70;;
22223;SDS011;11281;52.194;21.006;2023-05-29T04:02:20;9.77;;;4.85;;
22223;SDS011;11281;52.194;21.006;2023-05-29T04:06:21;6.70;;;4.68;;
22223;SDS011;11281;52.194;21.006;2023-05-29T04:10:23;10.38;;;5.28;;
22223;SDS011;11281;52.194;21.006;2023-05-29T04:14:25;7.30;;;4.90;;
22223;SDS011;11281;52.194;21.006;2023-05-29T04:18:26;9.00;;;5.07;;
22223;SDS011;11281;52.194;21.006;2023-05-29T04:22:28;11.77;;;6.00;;
22223;SDS011;11281;52.194;21.006;2023-05-29T04:26:29;11.23;;;5.07;;
22223;SDS011;11281;52.194;21.006;2023-05-29T04:30:33;9.60;;;4.57;;
22223;SDS011;11281;52.194;21.006;2023-05-29T04:34:34;7.95;;;4.47;;
22223;SDS011;11281;52.194;21.006;2023-05-29T04:38:35;9.65;;;4.38;;
22223;SDS011;11281;52.194;21.006;2023-05-29T04:42:38;5.38;;;4.45;;
22223;SDS011;11281;52.194;21.006;2023-05-29T04:46:42;10.98;;;4.47;;
22223;SDS011;11281;52.194;21.006;2023-05-29T04:50:44;9.85;;;5.10;;
22223;SDS011;11281;52.194;21.006;2023-05-29T04:54:46;10.48;;;4.40;;
22223;SDS011;11281;52.194;21.006;2023-05-29T04:58:47;8.77;;;4.40;;
22223;SDS011;11281;52.194;21.006;2023-05-29T05:02:49;9.65;;;4.68;;
22223;SDS011;11281;52.194;21.006;2023-05-29T05:06:50;10.27;;;4.25;;
22223;SDS011;11281;52.194;21.006;2023-05-29T05:10:52;6.57;;;4.57;;
22223;SDS011;11281;52.194;21.006;2023-05-29T05:14:54;8.95;;;4.38;;
22223;SDS011;11281;52.194;21.006;2023-05-29T05:18:55;7.07;;;3.95;;
22223;SDS011;11281;52.194;21.006;2023-05-29T05:22:57;7.28;;;3.72;;
22223;SDS011;11281;52.194;21.006;2023-05-29T05:27:00;6.45;;;3.63;;
22223;SDS011;11281;52.194;21.006;2023-05-29T05:31:03;5.30;;;3.78;;
22223;SDS011;11281;52.194;21.006;2023-05-29T05:35:04;8.57;;;4.20;;
22223;SDS011;11281;52.194;21.006;2023-05-29T05:39:05;11.52;;;4.47;;
22223;SDS011;11281;52.194;21.006;2023-05-29T05:43:06;5.10;;;4.10;;
22223;SDS011;11281;52.194;21.006;2023-05-29T05:47:08;5.97;;;3.33;;
22223;SDS011;11281;52.194;21.006;2023-05-29T05:51:10;14.20;;;4.85;;
22223;SDS011;11281;52.194;21.006;2023-05-29T05:55:12;7.82;;;3.47;;
22223;SDS011;11281;52.194;21.006;2023-05-29T05:59:13;6.50;;;3.17;;
22223;SDS011;11281;52.194;21.006;2023-05-29T06:03:14;5.60;;;2.88;;
22223;SDS011;11281;52.194;21.006;2023-05-29T06:07:16;6.53;;;2.67;;
22223;SDS011;11281;52.194;21.006;2023-05-29T06:11:18;5.75;;;2.20;;
22223;SDS011;11281;52.194;21.006;2023-05-29T06:15:20;5.90;;;2.38;;
22223;SDS011;11281;52.194;21.006;2023-05-29T06:19:22;2.40;;;1.38;;
22223;SDS011;11281;52.194;21.006;2023-05-29T06:23:24;3.47;;;1.70;;
22223;SDS011;11281;52.194;21.006;2023-05-29T06:27:26;3.80;;;1.50;;
22223;SDS011;11281;52.194;21.006;2023-05-29T06:31:27;3.70;;;1.90;;
22223;SDS011;11281;52.194;21.006;2023-05-29T06:35:29;5.97;;;1.75;;
22223;SDS011;11281;52.194;21.006;2023-05-29T06:39:30;3.78;;;2.08;;
22223;SDS011;11281;52.194;21.006;2023-05-29T06:43:32;3.65;;;2.10;;
22223;SDS011;11281;52.194;21.006;2023-05-29T06:47:34;4.55;;;1.92;;
22223;SDS011;11281;52.194;21.006;2023-05-29T06:51:35;8.20;;;2.08;;
22223;SDS011;11281;52.194;21.006;2023-05-29T06:55:37;2.67;;;1.67;;
22223;SDS011;11281;52.194;21.006;2023-05-29T06:59:39;7.15;;;1.83;;
22223;SDS011;11281;52.194;21.006;2023-05-29T07:03:40;6.85;;;1.48;;
22223;SDS011;11281;52.194;21.006;2023-05-29T07:07:42;5.28;;;1.90;;
22223;SDS011;11281;52.194;21.006;2023-05-29T07:11:43;5.18;;;1.70;;
22223;SDS011;11281;52.194;21.006;2023-05-29T07:15:44;2.88;;;1.40;;
22223;SDS011;11281;52.194;21.006;2023-05-29T07:19:46;3.10;;;1.38;;
22223;SDS011;11281;52.194;21.006;2023-05-29T07:23:49;4.78;;;1.20;;
22223;SDS011;11281;52.194;21.006;2023-05-29T07:27:51;2.80;;;1.13;;
22223;SDS011;11281;52.194;21.006;2023-05-29T07:31:53;2.25;;;1.30;;
22223;SDS011;11281;52.194;21.006;2023-05-29T07:35:55;2.30;;;1.23;;
22223;SDS011;11281;52.194;21.006;2023-05-29T07:39:56;1.70;;;1.35;;
22223;SDS011;11281;52.194;21.006;2023-05-29T07:43:58;2.13;;;1.55;;
22223;SDS011;11281;52.194;21.006;2023-05-29T07:48:00;3.58;;;1.77;;
22223;SDS011;11281;52.194;21.006;2023-05-29T07:52:02;3.95;;;1.35;;
22223;SDS011;11281;52.194;21.006;2023-05-29T07:56:04;2.30;;;1.25;;
22223;SDS011;11281;52.194;21.006;2023-05-29T08:00:06;1.63;;;1.50;;
22223;SDS011;11281;52.194;21.006;2023-05-29T08:04:08;2.15;;;1.15;;
22223;SDS011;11281;52.194;21.006;2023-05-29T08:08:09;3.47;;;1.10;;
22223;SDS011;11281;52.194;21.006;2023-05-29T08:12:13;4.78;;;1.35;;
22223;SDS011;11281;52.194;21.006;2023-05-29T08:16:14;2.58;;;1.20;;
22223;SDS011;11281;52.194;21.006;2023-05-29T08:20:18;1.80;;;1.15;;
22223;SDS011;11281;52.194;21.006;2023-05-29T08:24:20;2.20;;;1.35;;
22223;SDS011;11281;52.194;21.006;2023-05-29T08:28:21;2.08;;;1.20;;
22223;SDS011;11281;52.194;21.006;2023-05-29T08:32:23;1.88;;;1.05;;
22223;SDS011;11281;52.194;21.006;2023-05-29T08:36:24;3.42;;;1.10;;
22223;SDS011;11281;52.194;21.006;2023-05-29T08:40:26;4.72;;;1.50;;
22223;SDS011;11281;52.194;21.006;2023-05-29T08:44:29;2.63;;;1.15;;
22223;SDS011;11281;52.194;21.006;2023-05-29T08:48:33;3.00;;;1.10;;
22223;SDS011;11281;52.194;21.006;2023-05-29T08:52:38;2.53;;;1.35;;
22223;SDS011;11281;52.194;21.006;2023-05-29T08:56:42;1.55;;;1.20;;
22223;SDS011;11281;52.194;21.006;2023-05-29T09:00:46;1.55;;;1.10;;
22223;SDS011;11281;52.194;21.006;2023-05-29T09:04:48;3.35;;;0.85;;
22223;SDS011;11281;52.194;21.006;2023-05-29T09:08:50;2.22;;;1.20;;
22223;SDS011;11281;52.194;21.006;2023-05-29T09:12:53;1.95;;;1.13;;
22223;SDS011;11281;52.194;21.006;2023-05-29T09:16:55;5.25;;;1.35;;
22223;SDS011;11281;52.194;21.006;2023-05-29T09:20:56;3.67;;;1.23;;
22223;SDS011;11281;52.194;21.006;2023-05-29T09:24:58;1.58;;;1.17;;
22223;SDS011;11281;52.194;21.006;2023-05-29T09:29:00;1.25;;;1.15;;
22223;SDS011;11281;52.194;21.006;2023-05-29T09:33:03;4.03;;;1.42;;
22223;SDS011;11281;52.194;21.006;2023-05-29T09:37:06;2.80;;;1.17;;
22223;SDS011;11281;52.194;21.006;2023-05-29T09:41:09;2.65;;;1.23;;
22223;SDS011;11281;52.194;21.006;2023-05-29T09:45:11;1.58;;;1.23;;
22223;SDS011;11281;52.194;21.006;2023-05-29T09:49:12;2.35;;;1.00;;
22223;SDS011;11281;52.194;21.006;2023-05-29T09:53:18;2.63;;;0.95;;
22223;SDS011;11281;52.194;21.006;2023-05-29T09:57:20;2.70;;;1.38;;
22223;SDS011;11281;52.194;21.006;2023-05-29T10:01:24;3.42;;;1.25;;
22223;SDS011;11281;52.194;21.006;2023-05-29T10:05:27;1.27;;;1.17;;
22223;SDS011;11281;52.194;21.006;2023-05-29T10:09:29;5.88;;;1.15;;
22223;SDS011;11281;52.194;21.006;2023-05-29T10:13:33;3.05;;;1.40;;
22223;SDS011;11281;52.194;21.006;2023-05-29T10:17:37;2.40;;;1.55;;
22223;SDS011;11281;52.194;21.006;2023-05-29T10:21:40;1.65;;;1.13;;
22223;SDS011;11281;52.194;21.006;2023-05-29T10:25:42;2.10;;;1.20;;
22223;SDS011;11281;52.194;21.006;2023-05-29T10:29:50;4.03;;;1.23;;
22223;SDS011;11281;52.194;21.006;2023-05-29T10:38:46;1.60;;;1.17;;
22223;SDS011;11281;52.194;21.006;2023-05-29T10:42:49;4.25;;;1.10;;
22223;SDS011;11281;52.194;21.006;2023-05-29T10:47:01;3.55;;;1.30;;
22223;SDS011;11281;52.194;21.006;2023-05-29T10:51:05;2.88;;;1.80;;
22223;SDS011;11281;52.194;21.006;2023-05-29T10:55:08;3.45;;;1.38;;
22223;SDS011;11281;52.194;21.006;2023-05-29T10:59:11;3.05;;;1.48;;
22223;SDS011;11281;52.194;21.006;2023-05-29T11:03:17;1.65;;;1.33;;
22223;SDS011;11281;52.194;21.006;2023-05-29T11:07:34;1.92;;;1.23;;
22223;SDS011;11281;52.194;21.006;2023-05-29T11:20:27;2.38;;;1.30;;
22223;SDS011;11281;52.194;21.006;2023-05-29T11:24:35;2.50;;;1.38;;
22223;SDS011;11281;52.194;21.006;2023-05-29T11:28:38;3.95;;;1.60;;
22223;SDS011;11281;52.194;21.006;2023-05-29T11:32:40;1.52;;;1.20;;
22223;SDS011;11281;52.194;21.006;2023-05-29T11:36:42;3.40;;;0.90;;
22223;SDS011;11281;52.194;21.006;2023-05-29T11:40:44;1.48;;;1.23;;
22223;SDS011;11281;52.194;21.006;2023-05-29T11:44:46;5.53;;;1.50;;
22223;SDS011;11281;52.194;21.006;2023-05-29T11:48:47;5.32;;;1.42;;
22223;SDS011;11281;52.194;21.006;2023-05-29T11:52:48;2.30;;;1.02;;
22223;SDS011;11281;52.194;21.006;2023-05-29T11:56:50;1.60;;;1.20;;
22223;SDS011;11281;52.194;21.006;2023-05-29T12:00:53;3.20;;;1.48;;
22223;SDS011;11281;52.194;21.006;2023-05-29T12:05:01;2.00;;;1.20;;
22223;SDS011;11281;52.194;21.006;2023-05-29T12:09:03;2.05;;;1.05;;
22223;SDS011;11281;52.194;21.006;2023-05-29T12:13:05;3.20;;;1.10;;
22223;SDS011;11281;52.194;21.006;2023-05-29T12:17:07;1.50;;;1.27;;
22223;SDS011;11281;52.194;21.006;2023-05-29T12:21:09;1.33;;;1.08;;
22223;SDS011;11281;52.194;21.006;2023-05-29T12:25:15;2.20;;;1.33;;
22223;SDS011;11281;52.194;21.006;2023-05-29T12:29:18;1.77;;;1.20;;
22223;SDS011;11281;52.194;21.006;2023-05-29T12:33:28;2.13;;;1.20;;
22223;SDS011;11281;52.194;21.006;2023-05-29T12:37:31;2.22;;;1.10;;
22223;SDS011;11281;52.194;21.006;2023-05-29T12:41:33;1.15;;;0.90;;
22223;SDS011;11281;52.194;21.006;2023-05-29T12:45:35;2.63;;;1.05;;
22223;SDS011;11281;52.194;21.006;2023-05-29T12:49:37;4.72;;;1.30;;
22223;SDS011;11281;52.194;21.006;2023-05-29T12:53:38;3.45;;;1.30;;
22223;SDS011;11281;52.194;21.006;2023-05-29T12:57:39;6.18;;;2.15;;
22223;SDS011;11281;52.194;21.006;2023-05-29T13:01:41;2.72;;;1.27;;
22223;SDS011;11281;52.194;21.006;2023-05-29T13:05:43;4.65;;;1.45;;
22223;SDS011;11281;52.194;21.006;2023-05-29T13:09:45;1.58;;;0.93;;
22223;SDS011;11281;52.194;21.006;2023-05-29T13:13:47;2.88;;;1.10;;
22223;SDS011;11281;52.194;21.006;2023-05-29T13:17:48;1.73;;;1.20;;
22223;SDS011;11281;52.194;21.006;2023-05-29T13:21:50;4.88;;;1.08;;
22223;SDS011;11281;52.194;21.006;2023-05-29T13:25:52;2.75;;;1.20;;
22223;SDS011;11281;52.194;21.006;2023-05-29T13:29:54;3.80;;;1.13;;
22223;SDS011;11281;52.194;21.006;2023-05-29T13:33:56;2.03;;;1.30;;
22223;SDS011;11281;52.194;21.006;2023-05-29T13:37:57;1.52;;;1.20;;
22223;SDS011;11281;52.194;21.006;2023-05-29T13:41:58;1.67;;;1.10;;
22223;SDS011;11281;52.194;21.006;2023-05-29T13:46:00;2.50;;;1.10;;
22223;SDS011;11281;52.194;21.006;2023-05-29T13:50:02;1.17;;;1.02;;
22223;SDS011;11281;52.194;21.006;2023-05-29T13:54:03;2.10;;;1.25;;
22223;SDS011;11281;52.194;21.006;2023-05-29T13:58:05;1.08;;;0.98;;
22223;SDS011;11281;52.194;21.006;2023-05-29T14:02:06;1.98;;;1.45;;
22223;SDS011;11281;52.194;21.006;2023-05-29T14:06:09;3.60;;;1.27;;
22223;SDS011;11281;52.194;21.006;2023-05-29T14:10:11;2.70;;;1.17;;
22223;SDS011;11281;52.194;21.006;2023-05-29T14:14:12;2.38;;;1.30;;
22223;SDS011;11281;52.194;21.006;2023-05-29T14:18:14;3.70;;;1.17;;
22223;SDS011;11281;52.194;21.006;2023-05-29T14:22:15;3.42;;;1.35;;
22223;SDS011;11281;52.194;21.006;2023-05-29T14:26:17;3.35;;;1.50;;
22223;SDS011;11281;52.194;21.006;2023-05-29T14:30:18;2.33;;;1.40;;
22223;SDS011;11281;52.194;21.006;2023-05-29T14:34:20;1.45;;;1.20;;
22223;SDS011;11281;52.194;21.006;2023-05-29T14:38:23;2.75;;;1.30;;
22223;SDS011;11281;52.194;21.006;2023-05-29T14:42:24;5.88;;;1.52;;
22223;SDS011;11281;52.194;21.006;2023-05-29T14:46:26;1.98;;;1.30;;
22223;SDS011;11281;52.194;21.006;2023-05-29T14:50:28;4.97;;;1.52;;
22223;SDS011;11281;52.194;21.006;2023-05-29T14:54:30;3.53;;;2.53;;
22223;SDS011;11281;52.194;21.006;2023-05-29T14:58:31;3.85;;;2.30;;
22223;SDS011;11281;52.194;21.006;2023-05-29T15:02:33;2.38;;;1.30;;
22223;SDS011;11281;52.194;21.006;2023-05-29T15:06:35;1.38;;;1.27;;
22223;SDS011;11281;52.194;21.006;2023-05-29T15:10:37;2.45;;;1.42;;
22223;SDS011;11281;52.194;21.006;2023-05-29T15:14:39;3.28;;;1.90;;
22223;SDS011;11281;52.194;21.006;2023-05-29T15:18:41;7.45;;;1.92;;
22223;SDS011;11281;52.194;21.006;2023-05-29T15:22:43;2.83;;;1.58;;
22223;SDS011;11281;52.194;21.006;2023-05-29T15:26:45;4.65;;;1.70;;
22223;SDS011;11281;52.194;21.006;2023-05-29T15:30:47;4.18;;;1.60;;
22223;SDS011;11281;52.194;21.006;2023-05-29T15:34:49;4.95;;;1.80;;
22223;SDS011;11281;52.194;21.006;2023-05-29T15:38:50;2.35;;;1.52;;
22223;SDS011;11281;52.194;21.006;2023-05-29T15:42:51;1.80;;;1.42;;
22223;SDS011;11281;52.194;21.006;2023-05-29T15:46:52;2.75;;;1.40;;
22223;SDS011;11281;52.194;21.006;2023-05-29T15:50:54;3.03;;;1.60;;
22223;SDS011;11281;52.194;21.006;2023-05-29T15:54:56;4.78;;;1.88;;
22223;SDS011;11281;52.194;21.006;2023-05-29T15:58:57;2.65;;;1.88;;
22223;SDS011;11281;52.194;21.006;2023-05-29T16:02:59;3.80;;;1.80;;
22223;SDS011;11281;52.194;21.006;2023-05-29T16:07:01;1.75;;;1.50;;
22223;SDS011;11281;52.194;21.006;2023-05-29T16:11:03;2.15;;;1.52;;
22223;SDS011;11281;52.194;21.006;2023-05-29T16:15:04;2.95;;;1.85;;
22223;SDS011;11281;52.194;21.006;2023-05-29T16:19:06;3.92;;;1.40;;
22223;SDS011;11281;52.194;21.006;2023-05-29T16:23:08;2.85;;;1.80;;
22223;SDS011;11281;52.194;21.006;2023-05-29T16:27:09;3.60;;;1.70;;
22223;SDS011;11281;52.194;21.006;2023-05-29T16:31:11;3.08;;;1.88;;
22223;SDS011;11281;52.194;21.006;2023-05-29T16:35:12;5.32;;;1.98;;
22223;SDS011;11281;52.194;21.006;2023-05-29T16:39:14;4.32;;;1.80;;
22223;SDS011;11281;52.194;21.006;2023-05-29T16:43:16;4.38;;;2.10;;
22223;SDS011;11281;52.194;21.006;2023-05-29T16:47:18;3.60;;;1.63;;
22223;SDS011;11281;52.194;21.006;2023-05-29T16:51:20;2.20;;;1.90;;
22223;SDS011;11281;52.194;21.006;2023-05-29T16:55:21;3.55;;;1.77;;
22223;SDS011;11281;52.194;21.006;2023-05-29T16:59:25;4.50;;;1.58;;
22223;SDS011;11281;52.194;21.006;2023-05-29T17:03:26;2.88;;;1.55;;
22223;SDS011;11281;52.194;21.006;2023-05-29T17:07:28;2.47;;;1.88;;
22223;SDS011;11281;52.194;21.006;2023-05-29T17:11:29;3.08;;;2.00;;
22223;SDS011;11281;52.194;21.006;2023-05-29T17:15:31;2.03;;;1.40;;
22223;SDS011;11281;52.194;21.006;2023-05-29T17:19:33;2.90;;;1.73;;
22223;SDS011;11281;52.194;21.006;2023-05-29T17:23:34;5.07;;;2.22;;
22223;SDS011;11281;52.194;21.006;2023-05-29T17:27:37;6.00;;;1.80;;
22223;SDS011;11281;52.194;21.006;2023-05-29T17:31:39;3.20;;;1.83;;
22223;SDS011;11281;52.194;21.006;2023-05-29T17:35:41;3.97;;;2.22;;
22223;SDS011;11281;52.194;21.006;2023-05-29T17:39:43;4.35;;;2.38;;
22223;SDS011;11281;52.194;21.006;2023-05-29T17:43:45;3.70;;;2.03;;
22223;SDS011;11281;52.194;21.006;2023-05-29T17:47:46;5.65;;;2.22;;
22223;SDS011;11281;52.194;21.006;2023-05-29T17:51:48;4.82;;;1.98;;
22223;SDS011;11281;52.194;21.006;2023-05-29T17:55:50;2.95;;;2.63;;
22223;SDS011;11281;52.194;21.006;2023-05-29T17:59:51;2.63;;;2.28;;
22223;SDS011;11281;52.194;21.006;2023-05-29T18:03:54;3.53;;;2.30;;
22223;SDS011;11281;52.194;21.006;2023-05-29T18:07:55;5.47;;;2.30;;
22223;SDS011;11281;52.194;21.006;2023-05-29T18:11:56;3.65;;;2.42;;
22223;SDS011;11281;52.194;21.006;2023-05-29T18:15:57;3.97;;;2.13;;
22223;SDS011;11281;52.194;21.006;2023-05-29T18:19:58;3.58;;;2.30;;
22223;SDS011;11281;52.194;21.006;2023-05-29T18:24:00;4.03;;;2.33;;
22223;SDS011;11281;52.194;21.006;2023-05-29T18:28:03;7.15;;;2.88;;
22223;SDS011;11281;52.194;21.006;2023-05-29T18:32:04;5.80;;;2.58;;
22223;SDS011;11281;52.194;21.006;2023-05-29T18:36:06;7.80;;;2.58;;
22223;SDS011;11281;52.194;21.006;2023-05-29T18:40:08;5.07;;;2.63;;
22223;SDS011;11281;52.194;21.006;2023-05-29T18:44:10;5.65;;;3.00;;
22223;SDS011;11281;52.194;21.006;2023-05-29T18:48:11;6.20;;;2.53;;
22223;SDS011;11281;52.194;21.006;2023-05-29T18:52:12;5.80;;;2.25;;
22223;SDS011;11281;52.194;21.006;2023-05-29T18:56:14;6.32;;;2.70;;
22223;SDS011;11281;52.194;21.006;2023-05-29T19:00:15;3.45;;;2.15;;
22223;SDS011;11281;52.194;21.006;2023-05-29T19:04:17;5.45;;;2.10;;
22223;SDS011;11281;52.194;21.006;2023-05-29T19:08:18;3.08;;;1.95;;
22223;SDS011;11281;52.194;21.006;2023-05-29T19:12:19;5.00;;;2.28;;
22223;SDS011;11281;52.194;21.006;2023-05-29T19:16:21;5.50;;;2.45;;
22223;SDS011;11281;52.194;21.006;2023-05-29T19:20:22;5.30;;;2.35;;
22223;SDS011;11281;52.194;21.006;2023-05-29T19:24:24;4.97;;;2.45;;
22223;SDS011;11281;52.194;21.006;2023-05-29T19:28:26;3.47;;;2.40;;
22223;SDS011;11281;52.194;21.006;2023-05-29T19:32:28;4.05;;;2.17;;
22223;SDS011;11281;52.194;21.006;2023-05-29T19:36:32;4.55;;;2.33;;
22223;SDS011;11281;52.194;21.006;2023-05-29T19:40:34;4.55;;;2.35;;
22223;SDS011;11281;52.194;21.006;2023-05-29T19:44:36;7.80;;;2.45;;
22223;SDS011;11281;52.194;21.006;2023-05-29T19:48:38;7.68;;;2.42;;
22223;SDS011;11281;52.194;21.006;2023-05-29T19:52:40;5.40;;;2.40;;
22223;SDS011;11281;52.194;21.006;2023-05-29T19:56:42;7.78;;;2.40;;
22223;SDS011;11281;52.194;21.006;2023-05-29T20:00:44;8.30;;;2.67;;
22223;SDS011;11281;52.194;21.006;2023-05-29T20:04:46;5.47;;;2.42;;
22223;SDS011;11281;52.194;21.006;2023-05-29T20:08:48;6.13;;;2.80;;
22223;SDS011;11281;52.194;21.006;2023-05-29T20:12:49;6.38;;;2.78;;
22223;SDS011;11281;52.194;21.006;2023-05-29T20:16:52;6.55;;;2.75;;
22223;SDS011;11281;52.194;21.006;2023-05-29T20:20:54;3.90;;;3.03;;
22223;SDS011;11281;52.194;21.006;2023-05-29T20:24:56;7.28;;;2.72;;
22223;SDS011;11281;52.194;21.006;2023-05-29T20:28:58;4.20;;;2.65;;
22223;SDS011;11281;52.194;21.006;2023-05-29T20:33:00;5.13;;;2.72;;
22223;SDS011;11281;52.194;21.006;2023-05-29T20:37:02;5.32;;;2.90;;
22223;SDS011;11281;52.194;21.006;2023-05-29T20:41:04;4.85;;;2.58;;
22223;SDS011;11281;52.194;21.006;2023-05-29T20:45:06;5.40;;;2.40;;
22223;SDS011;11281;52.194;21.006;2023-05-29T20:49:08;5.50;;;3.15;;
22223;SDS011;11281;52.194;21.006;2023-05-29T20:53:10;3.80;;;2.30;;
22223;SDS011;11281;52.194;21.006;2023-05-29T20:57:11;5.55;;;2.60;;
22223;SDS011;11281;52.194;21.006;2023-05-29T21:01:12;3.85;;;2.38;;
22223;SDS011;11281;52.194;21.006;2023-05-29T21:05:14;8.27;;;2.83;;
22223;SDS011;11281;52.194;21.006;2023-05-29T21:09:16;4.90;;;2.50;;
22223;SDS011;11281;52.194;21.006;2023-05-29T21:13:18;6.22;;;3.13;;
22223;SDS011;11281;52.194;21.006;2023-05-29T21:17:20;3.25;;;2.13;;
22223;SDS011;11281;52.194;21.006;2023-05-29T21:21:21;4.90;;;2.17;;
22223;SDS011;11281;52.194;21.006;2023-05-29T21:25:23;9.00;;;2.42;;
22223;SDS011;11281;52.194;21.006;2023-05-29T21:29:24;4.88;;;2.80;;
22223;SDS011;11281;52.194;21.006;2023-05-29T21:33:26;5.40;;;2.22;;
22223;SDS011;11281;52.194;21.006;2023-05-29T21:37:27;8.20;;;2.40;;
22223;SDS011;11281;52.194;21.006;2023-05-29T21:41:28;5.40;;;2.45;;
22223;SDS011;11281;52.194;21.006;2023-05-29T21:45:30;5.00;;;2.00;;
22223;SDS011;11281;52.194;21.006;2023-05-29T21:49:31;4.47;;;2.03;;
22223;SDS011;11281;52.194;21.006;2023-05-29T21:53:33;3.22;;;1.73;;
22223;SDS011;11281;52.194;21.006;2023-05-29T21:57:35;6.00;;;1.83;;
22223;SDS011;11281;52.194;21.006;2023-05-29T22:01:37;4.45;;;1.80;;
22223;SDS011;11281;52.194;21.006;2023-05-29T22:05:39;5.78;;;2.10;;
22223;SDS011;11281;52.194;21.006;2023-05-29T22:09:41;2.72;;;2.13;;
22223;SDS011;11281;52.194;21.006;2023-05-29T22:13:42;3.40;;;1.42;;
22223;SDS011;11281;52.194;21.006;2023-05-29T22:17:45;3.75;;;1.77;;
22223;SDS011;11281;52.194;21.006;2023-05-29T22:21:49;8.35;;;1.98;;
22223;SDS011;11281;52.194;21.006;2023-05-29T22:25:51;2.72;;;1.60;;
22223;SDS011;11281;52.194;21.006;2023-05-29T22:29:52;4.78;;;1.40;;
22223;SDS011;11281;52.194;21.006;2023-05-29T22:33:53;4.00;;;1.95;;
22223;SDS011;11281;52.194;21.006;2023-05-29T22:37:54;5.53;;;2.03;;
22223;SDS011;11281;52.194;21.006;2023-05-29T22:41:57;4.20;;;2.05;;
22223;SDS011;11281;52.194;21.006;2023-05-29T22:45:58;3.58;;;1.60;;
22223;SDS011;11281;52.194;21.006;2023-05-29T22:49:59;4.97;;;1.98;;
22223;SDS011;11281;52.194;21.006;2023-05-29T22:54:01;2.63;;;1.65;;
22223;SDS011;11281;52.194;21.006;2023-05-29T22:58:04;4.40;;;2.10;;
22223;SDS011;11281;52.194;21.006;2023-05-29T23:02:05;3.58;;;1.38;;
22223;SDS011;11281;52.194;21.006;2023-05-29T23:06:06;4.28;;;1.73;;
22223;SDS011;11281;52.194;21.006;2023-05-29T23:10:10;3.28;;;1.35;;
22223;SDS011;11281;52.194;21.006;2023-05-29T23:14:11;3.25;;;1.60;;
22223;SDS011;11281;52.194;21.006;2023-05-29T23:18:12;4.53;;;1.40;;
22223;SDS011;11281;52.194;21.006;2023-05-29T23:22:13;3.33;;;1.85;;
22223;SDS011;11281;52.194;21.006;2023-05-29T23:26:15;3.05;;;1.50;;
22223;SDS011;11281;52.194;21.006;2023-05-29T23:30:16;6.82;;;1.90;;
22223;SDS011;11281;52.194;21.006;2023-05-29T23:34:18;3.72;;;1.40;;
22223;SDS011;11281;52.194;21.006;2023-05-29T23:38:19;3.95;;;2.10;;
22223;SDS011;11281;52.194;21.006;2023-05-29T23:42:20;2.42;;;1.50;;
22223;SDS011;11281;52.194;21.006;2023-05-29T23:46:22;3.80;;;1.60;;
22223;SDS011;11281;52.194;21.006;2023-05-29T23:50:24;3.00;;;1.38;;
22223;SDS011;11281;52.194;21.006;2023-05-29T23:54:26;2.28;;;1.42;;
22223;SDS011;11281;52.194;21.006;2023-05-29T23:58:28;4.72;;;1.73;;
